createdAt,value
2018-09-24T00:02:19.205Z,66.90
2018-09-24T00:04:47.560Z,66.80
2018-09-24T00:07:15.611Z,66.91
2018-09-24T00:09:43.690Z,68.14
2018-09-24T00:12:11.856Z,68.03
2018-09-24T00:14:39.831Z,68.08
2018-09-24T00:17:07.785Z,68.66
2018-09-24T00:19:35.760Z,69.17
2018-09-24T00:22:03.780Z,70.12
2018-09-24T00:24:31.765Z,70.22
2018-09-24T00:27:00.002Z,69.85
2018-09-24T00:29:27.949Z,69.23
2018-09-24T00:31:55.865Z,68.69
2018-09-24T00:34:23.808Z,68.87
2018-09-24T00:36:51.680Z,68.58
2018-09-24T00:39:19.590Z,68.76
2018-09-24T00:41:47.507Z,68.98
2018-09-24T00:44:16.563Z,68.73
2018-09-24T00:46:44.626Z,69.27
2018-09-24T00:49:12.478Z,70.64
2018-09-24T00:51:40.488Z,70.23
2018-09-24T00:54:08.434Z,69.94
2018-09-24T00:56:36.497Z,69.88
2018-09-24T00:59:04.548Z,69.61
2018-09-24T01:01:32.596Z,69.01
2018-09-24T01:04:00.474Z,69.87
2018-09-24T01:06:28.476Z,70.42
2018-09-24T01:08:56.503Z,70.42
2018-09-24T01:11:24.401Z,70.83
2018-09-24T01:13:52.311Z,71.16
2018-09-24T01:16:20.283Z,71.64
2018-09-24T01:18:48.256Z,70.65
2018-09-24T01:21:16.214Z,71.14
2018-09-24T01:23:44.247Z,71.24
2018-09-24T01:26:12.294Z,71.07
2018-09-24T01:28:40.382Z,72.23
2018-09-24T01:31:08.599Z,72.83
2018-09-24T01:33:36.751Z,73.27
2018-09-24T01:36:04.766Z,73.67
2018-09-24T01:38:32.716Z,73.65
2018-09-24T01:41:00.604Z,74.32
2018-09-24T01:43:28.465Z,73.32
2018-09-24T01:45:56.969Z,73.25
2018-09-24T01:48:24.936Z,73.59
2018-09-24T01:50:52.885Z,75.23
2018-09-24T01:53:20.773Z,75.63
2018-09-24T01:55:50.262Z,75.42
2018-09-24T01:58:18.147Z,76.53
2018-09-24T02:00:46.071Z,75.27
2018-09-24T02:03:14.018Z,73.75
2018-09-24T02:05:42.000Z,77.00
2018-09-24T02:08:09.906Z,77.43
2018-09-24T02:10:37.938Z,77.60
2018-09-24T02:13:06.100Z,78.15
2018-09-24T02:15:34.142Z,75.66
2018-09-24T02:18:02.142Z,77.25
2018-09-24T02:20:30.203Z,75.43
2018-09-24T02:22:58.306Z,75.03
2018-09-24T02:25:26.350Z,74.88
2018-09-24T02:27:54.991Z,74.88
2018-09-24T02:30:23.313Z,75.19
2018-09-24T02:32:51.346Z,77.07
2018-09-24T02:35:19.400Z,76.35
2018-09-24T02:37:47.506Z,76.25
2018-09-24T02:40:24.224Z,75.95
2018-09-24T02:42:52.069Z,77.05
2018-09-24T02:45:20.760Z,76.39
2018-09-24T02:47:48.732Z,76.29
2018-09-24T02:50:16.759Z,77.28
2018-09-24T02:52:44.678Z,76.78
2018-09-24T02:55:17.346Z,74.60
2018-09-24T02:57:45.478Z,76.17
2018-09-24T03:00:17.885Z,75.65
2018-09-24T03:02:45.813Z,77.16
2018-09-24T03:05:13.736Z,77.85
2018-09-24T03:07:41.658Z,76.94
2018-09-24T03:10:09.588Z,77.57
2018-09-24T03:12:37.871Z,76.40
2018-09-24T03:15:05.954Z,75.81
2018-09-24T03:17:33.981Z,77.57
2018-09-24T03:20:02.228Z,78.57
2018-09-24T03:22:30.219Z,78.54
2018-09-24T03:24:59.259Z,76.70
2018-09-24T03:27:27.231Z,76.39
2018-09-24T03:29:55.122Z,78.56
2018-09-24T03:32:23.070Z,75.97
2018-09-24T03:34:50.949Z,75.73
2018-09-24T03:37:18.951Z,77.02
2018-09-24T03:39:46.856Z,76.83
2018-09-24T03:42:14.881Z,76.82
2018-09-24T03:44:42.896Z,79.33
2018-09-24T03:47:10.976Z,77.43
2018-09-24T03:49:38.986Z,77.04
2018-09-24T03:52:07.245Z,78.18
2018-09-24T03:54:35.616Z,77.73
2018-09-24T03:57:03.594Z,77.38
2018-09-24T03:59:31.561Z,78.15
2018-09-24T04:01:59.650Z,77.05
2018-09-24T04:04:33.086Z,76.36
2018-09-24T04:07:06.485Z,76.49
2018-09-24T04:09:39.999Z,76.01
2018-09-24T04:12:14.530Z,76.95
2018-09-24T04:14:48.247Z,77.08
2018-09-24T04:17:21.530Z,76.51
2018-09-24T04:19:54.915Z,78.07
2018-09-24T04:22:28.358Z,77.35
2018-09-24T04:25:01.938Z,78.65
2018-09-24T04:27:35.325Z,77.31
2018-09-24T04:30:09.153Z,76.91
2018-09-24T04:32:42.366Z,74.74
2018-09-24T04:35:15.811Z,76.59
2018-09-24T04:37:49.249Z,76.22
2018-09-24T04:40:22.634Z,74.46
2018-09-24T04:42:55.915Z,74.11
2018-09-24T04:45:29.154Z,71.69
2018-09-24T04:48:02.519Z,72.27
2018-09-24T04:50:37.522Z,74.79
2018-09-24T04:53:10.899Z,74.59
2018-09-24T04:55:44.274Z,73.38
2018-09-24T04:58:19.731Z,73.68
2018-09-24T05:00:53.205Z,75.62
2018-09-24T05:03:27.571Z,72.99
2018-09-24T05:06:01.058Z,73.60
2018-09-24T05:08:34.494Z,72.73
2018-09-24T05:11:07.888Z,72.13
2018-09-24T05:13:41.591Z,74.15
2018-09-24T05:16:14.989Z,73.22
2018-09-24T05:18:48.430Z,72.32
2018-09-24T05:21:21.862Z,73.85
2018-09-24T05:23:55.194Z,74.77
2018-09-24T05:26:28.442Z,76.00
2018-09-24T05:29:01.903Z,73.94
2018-09-24T05:31:35.155Z,75.05
2018-09-24T05:34:08.533Z,74.32
2018-09-24T05:36:42.432Z,72.51
2018-09-24T05:39:15.898Z,74.77
2018-09-24T05:41:49.150Z,72.69
2018-09-24T05:44:22.626Z,72.71
2018-09-24T05:46:55.889Z,73.84
2018-09-24T05:49:29.327Z,74.73
2018-09-24T05:52:02.698Z,73.35
2018-09-24T05:54:36.112Z,74.82
2018-09-24T05:57:09.590Z,74.20
2018-09-24T05:59:43.047Z,73.36
2018-09-24T06:02:16.442Z,72.59
2018-09-24T06:04:49.837Z,71.79
2018-09-24T06:07:23.261Z,72.98
2018-09-24T06:09:56.633Z,72.46
2018-09-24T06:12:30.133Z,70.37
2018-09-24T06:15:03.725Z,71.02
2018-09-24T06:17:37.150Z,69.86
2018-09-24T06:20:10.865Z,70.39
2018-09-24T06:22:44.444Z,70.13
2018-09-24T06:25:18.037Z,68.89
2018-09-24T06:27:51.431Z,69.29
2018-09-24T06:30:24.958Z,67.32
2018-09-24T06:32:58.236Z,66.13
2018-09-24T06:35:31.545Z,65.62
2018-09-24T06:38:05.831Z,64.30
2018-09-24T06:40:39.528Z,63.58
2018-09-24T06:43:13.138Z,65.77
2018-09-24T06:45:46.642Z,62.57
2018-09-24T06:48:19.930Z,60.47
2018-09-24T06:50:53.378Z,61.82
2018-09-24T06:53:26.957Z,58.81
2018-09-24T06:56:01.095Z,58.24
2018-09-24T06:58:34.394Z,61.36
2018-09-24T07:01:07.878Z,59.29
2018-09-24T07:03:41.256Z,57.78
2018-09-24T07:06:14.759Z,56.66
2018-09-24T07:08:48.150Z,54.52
2018-09-24T07:11:21.644Z,49.50
2018-09-24T07:13:55.158Z,45.90
2018-09-24T07:16:28.411Z,43.45
2018-09-24T07:19:01.819Z,42.26
2018-09-24T07:21:35.535Z,41.97
2018-09-24T07:24:08.996Z,42.42
2018-09-24T07:26:42.335Z,44.41
2018-09-24T07:29:15.729Z,45.80
2018-09-24T07:31:49.100Z,45.99
2018-09-24T07:34:22.425Z,43.97
2018-09-24T07:36:56.157Z,44.91
2018-09-24T07:39:29.507Z,47.52
2018-09-24T07:42:03.057Z,48.76
2018-09-24T07:44:36.504Z,48.83
2018-09-24T07:47:09.908Z,47.99
2018-09-24T07:49:43.363Z,48.60
2018-09-24T07:52:16.801Z,48.83
2018-09-24T07:54:50.358Z,48.44
2018-09-24T07:57:23.784Z,48.97
2018-09-24T07:59:57.143Z,49.31
2018-09-24T08:02:30.566Z,47.16
2018-09-24T08:05:03.975Z,46.98
2018-09-24T08:07:37.378Z,47.25
2018-09-24T08:10:12.099Z,48.02
2018-09-24T08:12:45.459Z,49.59
2018-09-24T08:15:19.231Z,50.34
2018-09-24T08:17:52.815Z,47.44
2018-09-24T08:20:27.412Z,46.15
2018-09-24T08:23:00.762Z,45.14
2018-09-24T08:25:34.257Z,45.70
2018-09-24T08:28:07.539Z,45.50
2018-09-24T08:30:41.054Z,45.34
2018-09-24T08:33:14.413Z,45.79
2018-09-24T08:35:47.690Z,43.73
2018-09-24T08:38:21.130Z,43.90
2018-09-24T08:40:54.553Z,43.95
2018-09-24T08:43:27.985Z,43.36
2018-09-24T08:46:01.269Z,42.87
2018-09-24T08:48:34.682Z,42.86
2018-09-24T08:51:08.077Z,42.47
2018-09-24T08:53:41.577Z,42.17
2018-09-24T08:56:14.863Z,40.57
2018-09-24T08:58:48.464Z,40.45
2018-09-24T09:01:22.000Z,41.49
2018-09-24T09:03:55.583Z,40.69
2018-09-24T09:06:29.242Z,41.31
2018-09-24T09:09:02.807Z,40.22
2018-09-24T09:11:36.333Z,39.75
2018-09-24T09:14:09.937Z,40.10
2018-09-24T09:16:43.279Z,39.42
2018-09-24T09:19:16.734Z,38.40
2018-09-24T09:21:50.125Z,39.60
2018-09-24T09:24:24.420Z,38.47
2018-09-24T09:26:57.843Z,35.68
2018-09-24T09:29:31.434Z,35.61
2018-09-24T09:32:04.755Z,35.85
2018-09-24T09:34:38.456Z,33.89
2018-09-24T09:37:11.853Z,33.89
2018-09-24T09:39:45.299Z,32.45
2018-09-24T09:42:18.702Z,31.07
2018-09-24T09:44:52.091Z,32.04
2018-09-24T09:47:25.588Z,33.64
2018-09-24T09:49:59.692Z,32.83
2018-09-24T09:52:32.945Z,31.97
2018-09-24T09:55:07.739Z,30.78
2018-09-24T09:57:41.108Z,29.77
2018-09-24T10:00:14.541Z,29.70
2018-09-24T10:02:48.080Z,30.82
2018-09-24T10:05:21.433Z,32.20
2018-09-24T10:07:54.975Z,31.09
2018-09-24T10:10:28.441Z,30.02
2018-09-24T10:13:01.967Z,29.37
2018-09-24T10:15:36.266Z,29.50
2018-09-24T10:18:10.010Z,30.64
2018-09-24T10:20:43.373Z,31.07
2018-09-24T10:23:16.980Z,31.47
2018-09-24T10:25:50.378Z,32.89
2018-09-24T10:28:24.731Z,33.11
2018-09-24T10:31:00.820Z,32.48
2018-09-24T10:33:34.254Z,32.96
2018-09-24T10:36:08.341Z,32.92
2018-09-24T10:38:42.769Z,32.73
2018-09-24T10:41:16.203Z,32.74
2018-09-24T10:43:49.578Z,32.18
2018-09-24T10:46:23.107Z,32.19
2018-09-24T10:48:57.242Z,31.34
2018-09-24T10:51:30.479Z,31.87
2018-09-24T10:54:03.867Z,31.59
2018-09-24T10:56:37.387Z,31.10
2018-09-24T10:59:10.929Z,30.95
2018-09-24T11:01:44.378Z,30.42
2018-09-24T11:04:20.674Z,29.68
2018-09-24T11:06:53.991Z,30.44
2018-09-24T11:09:27.443Z,28.44
2018-09-24T11:12:01.213Z,24.96
2018-09-24T11:14:34.650Z,23.23
2018-09-24T11:17:08.644Z,23.08
2018-09-24T11:19:45.668Z,22.61
2018-09-24T11:22:19.944Z,21.93
2018-09-24T11:24:54.599Z,23.05
2018-09-24T11:27:28.077Z,23.48
2018-09-24T11:30:03.259Z,24.11
2018-09-24T11:32:36.691Z,22.97
2018-09-24T11:35:10.394Z,24.96
2018-09-24T11:37:43.835Z,25.77
2018-09-24T11:40:17.293Z,24.05
2018-09-24T11:42:51.301Z,24.96
2018-09-24T11:45:24.735Z,27.14
2018-09-24T11:47:58.572Z,29.54
2018-09-24T11:50:31.819Z,30.49
2018-09-24T11:53:05.560Z,30.59
2018-09-24T11:55:39.124Z,31.47
2018-09-24T11:58:12.662Z,31.51
2018-09-24T12:00:46.287Z,31.70
2018-09-24T12:03:19.924Z,34.39
2018-09-24T12:05:53.563Z,34.85
2018-09-24T12:08:27.932Z,36.46
2018-09-24T12:11:01.234Z,36.90
2018-09-24T12:13:34.683Z,38.60
2018-09-24T12:16:08.055Z,38.90
2018-09-24T12:18:41.689Z,39.38
2018-09-24T12:21:15.223Z,39.46
2018-09-24T12:23:48.869Z,40.11
2018-09-24T12:26:22.201Z,41.12
2018-09-24T12:28:55.675Z,43.21
2018-09-24T12:31:28.958Z,42.14
2018-09-24T12:34:02.438Z,40.50
2018-09-24T12:36:36.012Z,41.49
2018-09-24T12:39:11.281Z,43.66
2018-09-24T12:41:44.611Z,41.56
2018-09-24T12:44:18.019Z,41.77
2018-09-24T12:46:51.480Z,41.84
2018-09-24T12:49:24.671Z,41.54
2018-09-24T12:51:58.095Z,43.15
2018-09-24T12:54:31.419Z,45.14
2018-09-24T12:57:05.120Z,47.23
2018-09-24T12:59:38.543Z,47.03
2018-09-24T13:02:11.972Z,46.29
2018-09-24T13:04:45.273Z,47.78
2018-09-24T13:07:18.598Z,47.81
2018-09-24T13:09:52.010Z,49.44
2018-09-24T13:12:25.512Z,49.88
2018-09-24T13:14:59.888Z,50.75
2018-09-24T13:17:33.453Z,48.83
2018-09-24T13:20:07.089Z,48.22
2018-09-24T13:22:40.414Z,48.40
2018-09-24T13:25:13.822Z,47.70
2018-09-24T13:27:47.112Z,47.89
2018-09-24T13:30:20.739Z,48.50
2018-09-24T13:32:57.788Z,47.54
2018-09-24T13:35:35.403Z,47.00
2018-09-24T13:38:14.589Z,47.28
2018-09-24T13:40:57.779Z,48.52
2018-09-24T13:43:35.711Z,49.13
2018-09-24T13:46:28.862Z,47.82
2018-09-24T13:49:03.188Z,49.28
2018-09-24T13:51:49.902Z,49.64
2018-09-24T13:57:05.559Z,50.47
2018-09-24T13:59:44.651Z,51.46
2018-09-24T14:02:28.897Z,48.73
2018-09-24T14:05:02.122Z,48.84
2018-09-24T14:07:35.554Z,49.50
2018-09-24T14:10:09.248Z,49.18
2018-09-24T14:12:42.458Z,49.49
2018-09-24T14:15:15.839Z,50.71
2018-09-24T14:17:49.114Z,49.87
2018-09-24T14:20:22.506Z,51.65
2018-09-24T14:22:55.972Z,52.20
2018-09-24T14:25:29.965Z,51.95
2018-09-24T14:28:04.976Z,50.90
2018-09-24T14:30:38.595Z,51.31
2018-09-24T14:33:12.019Z,50.90
2018-09-24T14:35:46.575Z,52.10
2018-09-24T14:38:19.809Z,52.13
2018-09-24T14:40:59.968Z,51.71
2018-09-24T14:43:37.401Z,52.50
2018-09-24T14:46:12.005Z,52.73
2018-09-24T14:48:46.258Z,51.99
2018-09-24T14:51:19.623Z,52.37
2018-09-24T14:53:53.326Z,54.36
2018-09-24T14:56:26.792Z,53.42
2018-09-24T14:59:00.266Z,52.79
2018-09-24T15:01:34.251Z,52.54
2018-09-24T15:04:07.622Z,52.70
2018-09-24T15:06:40.989Z,52.49
2018-09-24T15:09:14.293Z,52.58
2018-09-24T15:11:47.691Z,53.18
2018-09-24T15:14:21.046Z,53.98
2018-09-24T15:16:54.687Z,54.75
2018-09-24T15:19:28.849Z,55.14
2018-09-24T15:22:02.633Z,53.80
2018-09-24T15:24:36.326Z,54.47
2018-09-24T15:27:10.003Z,55.81
2018-09-24T15:29:43.537Z,55.58
2018-09-24T15:32:23.823Z,55.63
2018-09-24T15:34:57.133Z,56.33
2018-09-24T15:37:30.975Z,56.99
2018-09-24T15:40:05.940Z,58.03
2018-09-24T15:42:39.592Z,58.77
2018-09-24T15:45:13.234Z,59.78
2018-09-24T15:47:46.747Z,60.14
2018-09-24T15:50:20.581Z,60.41
2018-09-24T15:52:54.162Z,61.46
2018-09-24T15:55:27.595Z,61.34
2018-09-24T15:58:01.185Z,60.61
2018-09-24T16:00:34.693Z,60.98
2018-09-24T16:03:07.943Z,61.39
2018-09-24T16:05:41.709Z,61.05
2018-09-24T16:08:15.417Z,61.04
2018-09-24T16:10:48.737Z,60.96
2018-09-24T16:13:22.091Z,61.31
2018-09-24T16:15:55.667Z,61.17
2018-09-24T16:18:29.069Z,60.11
2018-09-24T16:21:03.682Z,60.68
2018-09-24T16:23:37.717Z,62.28
2018-09-24T16:26:11.494Z,61.04
2018-09-24T16:28:45.152Z,60.94
2018-09-24T16:31:18.527Z,60.42
2018-09-24T16:33:52.072Z,60.27
2018-09-24T16:36:25.565Z,60.37
2018-09-24T16:38:59.200Z,61.32
2018-09-24T16:41:32.866Z,61.84
2018-09-24T16:44:06.539Z,63.08
2018-09-24T16:46:39.999Z,63.44
2018-09-24T16:49:13.518Z,63.11
2018-09-24T16:51:47.883Z,63.41
2018-09-24T16:54:21.185Z,62.59
2018-09-24T16:56:54.708Z,62.29
2018-09-24T16:59:28.349Z,62.79
2018-09-24T17:04:41.333Z,63.15
2018-09-24T17:07:18.166Z,63.61
2018-09-24T17:09:53.278Z,63.04
2018-09-24T17:12:26.999Z,63.54
2018-09-24T17:15:01.102Z,63.39
2018-09-24T17:17:34.696Z,64.10
2018-09-24T17:20:11.565Z,63.31
2018-09-24T17:22:44.975Z,63.10
2018-09-24T17:25:18.360Z,64.09
2018-09-24T17:27:54.026Z,64.27
2018-09-24T17:30:27.514Z,65.28
2018-09-24T17:33:00.887Z,64.74
2018-09-24T17:35:34.214Z,64.98
2018-09-24T17:38:07.681Z,63.95
2018-09-24T17:40:40.996Z,64.19
2018-09-24T17:43:14.389Z,64.27
2018-09-24T17:45:47.904Z,65.04
2018-09-24T17:48:21.142Z,64.85
2018-09-24T17:50:54.541Z,64.85
2018-09-24T17:53:27.916Z,63.81
2018-09-24T17:56:03.039Z,64.90
2018-09-24T17:58:36.693Z,64.36
2018-09-24T18:01:10.035Z,63.07
2018-09-24T18:03:43.411Z,63.01
2018-09-24T18:06:16.845Z,63.41
2018-09-24T18:08:50.303Z,63.04
2018-09-24T18:11:23.618Z,62.52
2018-09-24T18:13:57.828Z,63.39
2018-09-24T18:16:31.302Z,63.37
2018-09-24T18:19:04.731Z,63.41
2018-09-24T18:21:38.151Z,63.56
2018-09-24T18:24:11.571Z,62.97
2018-09-24T18:26:44.936Z,63.69
2018-09-24T18:29:19.617Z,63.39
2018-09-24T18:31:58.061Z,63.69
2018-09-24T18:34:35.294Z,63.18
2018-09-24T18:37:09.287Z,63.33
2018-09-24T18:39:46.034Z,63.38
2018-09-24T18:42:19.524Z,63.81
2018-09-24T18:44:53.019Z,64.23
2018-09-24T18:47:26.361Z,63.86
2018-09-24T18:49:59.893Z,63.89
2018-09-24T18:52:33.243Z,64.66
2018-09-24T18:55:07.583Z,64.96
2018-09-24T18:57:41.051Z,64.69
2018-09-24T19:00:14.602Z,64.81
2018-09-24T19:02:47.855Z,63.90
2018-09-24T19:05:21.204Z,64.58
2018-09-24T19:07:54.654Z,66.44
2018-09-24T19:10:28.394Z,66.08
2018-09-24T19:13:01.742Z,67.18
2018-09-24T19:15:35.314Z,67.92
2018-09-24T19:18:08.951Z,67.20
2018-09-24T19:20:42.410Z,67.34
2018-09-24T19:23:15.766Z,67.24
2018-09-24T19:25:49.192Z,68.59
2018-09-24T19:28:23.027Z,68.28
2018-09-24T19:30:57.940Z,67.63
2018-09-24T19:33:31.451Z,66.00
2018-09-24T19:36:04.893Z,66.97
2018-09-24T19:38:38.370Z,66.99
2018-09-24T19:41:11.852Z,65.77
2018-09-24T19:43:45.160Z,65.26
2018-09-24T19:46:18.600Z,65.64
2018-09-24T19:48:51.973Z,66.30
2018-09-24T19:51:25.285Z,65.06
2018-09-24T19:53:58.665Z,64.96
2018-09-24T19:56:31.969Z,62.99
2018-09-24T19:59:05.901Z,63.77
2018-09-24T20:01:40.301Z,63.79
2018-09-24T20:04:13.970Z,63.22
2018-09-24T20:06:47.218Z,63.28
2018-09-24T20:09:20.670Z,64.03
2018-09-24T20:11:54.108Z,65.04
2018-09-24T20:14:27.536Z,64.52
2018-09-24T20:17:04.521Z,65.82
2018-09-24T20:19:37.893Z,64.95
2018-09-24T20:22:13.129Z,66.95
2018-09-24T20:24:47.140Z,68.69
2018-09-24T20:27:20.523Z,71.44
2018-09-24T20:29:54.248Z,73.47
2018-09-24T20:32:27.588Z,74.52
2018-09-24T20:35:00.855Z,75.23
2018-09-24T20:37:34.603Z,76.33
2018-09-24T20:40:08.316Z,75.56
2018-09-24T20:42:41.808Z,74.33
2018-09-24T20:45:15.563Z,73.77
2018-09-24T20:47:48.926Z,76.05
2018-09-24T20:50:22.404Z,77.65
2018-09-24T20:52:55.709Z,77.61
2018-09-24T20:55:29.004Z,77.62
2018-09-24T20:58:02.526Z,77.76
2018-09-24T21:00:37.265Z,78.02
2018-09-24T21:03:11.329Z,79.23
2018-09-24T21:05:44.673Z,78.91
2018-09-24T21:08:18.531Z,80.07
2018-09-24T21:10:51.863Z,78.79
2018-09-24T21:13:26.104Z,78.67
2018-09-24T21:15:59.840Z,78.50
2018-09-24T21:18:33.200Z,76.98
2018-09-24T21:21:06.603Z,75.94
2018-09-24T21:23:39.879Z,75.03
2018-09-24T21:26:13.364Z,75.00
2018-09-24T21:28:46.844Z,74.86
2018-09-24T21:31:20.180Z,74.57
2018-09-24T21:33:53.546Z,74.04
2018-09-24T21:36:26.952Z,73.49
2018-09-24T21:39:02.589Z,72.07
2018-09-24T21:41:36.030Z,71.54
2018-09-24T21:44:09.482Z,70.59
2018-09-24T21:46:43.891Z,71.42
2018-09-24T21:49:19.216Z,71.17
2018-09-24T21:54:32.703Z,70.00
2018-09-24T21:57:06.298Z,69.73
2018-09-24T21:59:40.052Z,69.79
2018-09-24T22:02:13.756Z,69.06
2018-09-24T22:04:47.105Z,68.76
2018-09-24T22:07:20.302Z,68.40
2018-09-24T22:09:53.677Z,68.77
2018-09-24T22:12:27.180Z,68.21
2018-09-24T22:15:00.592Z,68.61
2018-09-24T22:17:34.054Z,68.39
2018-09-24T22:20:08.600Z,68.10
2018-09-24T22:22:42.308Z,68.38
2018-09-24T22:25:15.970Z,68.08
2018-09-24T22:27:49.577Z,69.02
2018-09-24T22:30:23.035Z,68.82
2018-09-24T22:32:56.400Z,68.93
2018-09-24T22:35:30.041Z,68.90
2018-09-24T22:38:03.359Z,68.12
2018-09-24T22:40:38.270Z,68.23
2018-09-24T22:43:11.764Z,68.08
2018-09-24T22:45:45.180Z,67.53
2018-09-24T22:48:18.386Z,67.65
2018-09-24T22:50:51.648Z,67.82
2018-09-24T22:53:25.058Z,67.23
2018-09-24T22:55:58.484Z,67.79
2018-09-24T22:58:31.935Z,66.86
2018-09-24T23:01:05.378Z,67.77
2018-09-24T23:03:38.668Z,67.73
2018-09-24T23:06:11.941Z,67.98
2018-09-24T23:08:45.410Z,68.32
2018-09-24T23:11:18.745Z,67.08
2018-09-24T23:13:52.197Z,66.98
2018-09-24T23:16:25.763Z,66.30
2018-09-24T23:18:59.107Z,66.00
2018-09-24T23:21:32.930Z,65.76
2018-09-24T23:24:06.439Z,65.73
2018-09-24T23:26:39.779Z,65.68
2018-09-24T23:29:13.335Z,65.69
2018-09-24T23:31:46.596Z,66.81
2018-09-24T23:34:19.973Z,66.33
2018-09-24T23:36:53.523Z,66.06
2018-09-24T23:39:26.991Z,65.72
2018-09-24T23:42:01.981Z,65.63
2018-09-24T23:44:35.480Z,66.09
2018-09-24T23:47:09.082Z,65.55
2018-09-24T23:49:42.363Z,65.62
2018-09-24T23:52:15.795Z,65.77
2018-09-24T23:54:49.037Z,65.51
2018-09-24T23:57:22.235Z,65.43
2018-09-24T23:59:55.707Z,65.38
